createdAt,value
2018-12-18T00:02:05.633Z,100791.39
2018-12-18T00:05:15.617Z,100784.52
2018-12-18T00:08:20.147Z,100785.67
2018-12-18T00:11:24.827Z,100783.56
2018-12-18T00:14:29.494Z,100794.20
2018-12-18T00:17:34.046Z,100787.89
2018-12-18T00:20:38.595Z,100789.52
2018-12-18T00:23:43.110Z,100794.06
2018-12-18T00:26:47.728Z,100788.03
2018-12-18T00:29:52.431Z,100790.91
2018-12-18T00:32:56.987Z,100795.11
2018-12-18T00:36:01.778Z,100791.61
2018-12-18T00:39:11.711Z,100784.74
2018-12-18T00:42:16.253Z,100784.03
2018-12-18T00:45:20.937Z,100783.13
2018-12-18T00:48:25.543Z,100789.66
2018-12-18T00:51:30.229Z,100781.01
2018-12-18T00:54:34.937Z,100774.30
2018-12-18T00:57:39.513Z,100779.13
2018-12-18T01:00:44.164Z,100782.79
2018-12-18T01:03:52.768Z,100784.61
2018-12-18T01:06:55.366Z,100783.96
2018-12-18T01:10:00.187Z,100785.59
2018-12-18T01:13:04.826Z,100786.55
2018-12-18T01:16:09.321Z,100798.20
2018-12-18T01:19:14.283Z,100796.78
2018-12-18T01:22:18.814Z,100798.80
2018-12-18T01:25:23.439Z,100802.25
2018-12-18T01:28:27.962Z,100796.00
2018-12-18T01:31:32.677Z,100793.63
2018-12-18T01:34:37.333Z,100794.55
2018-12-18T01:37:42.079Z,100794.13
2018-12-18T01:40:46.574Z,100801.20
2018-12-18T01:43:51.090Z,100787.59
2018-12-18T01:46:55.715Z,100789.44
2018-12-18T01:50:00.276Z,100793.09
2018-12-18T01:53:04.891Z,100792.36
2018-12-18T01:56:09.515Z,100789.78
2018-12-18T01:59:14.219Z,100790.34
2018-12-18T02:02:18.719Z,100787.59
2018-12-18T02:05:23.441Z,100782.45
2018-12-18T02:08:28.136Z,100780.75
2018-12-18T02:11:32.815Z,100780.63
2018-12-18T02:14:37.517Z,100773.48
2018-12-18T02:17:42.183Z,100763.14
2018-12-18T02:20:46.814Z,100771.12
2018-12-18T02:23:51.410Z,100771.55
2018-12-18T02:26:55.961Z,100777.16
2018-12-18T02:30:00.695Z,100776.98
2018-12-18T02:33:05.225Z,100777.97
2018-12-18T02:36:09.775Z,100772.55
2018-12-18T02:39:14.247Z,100771.17
2018-12-18T02:42:18.729Z,100769.28
2018-12-18T02:45:23.400Z,100774.50
2018-12-18T02:48:28.582Z,100774.50
2018-12-18T02:51:37.379Z,100772.83
2018-12-18T02:54:41.885Z,100773.95
2018-12-18T02:57:46.429Z,100779.59
2018-12-18T03:00:50.918Z,100782.47
2018-12-18T03:03:55.405Z,100781.89
2018-12-18T03:06:59.946Z,100781.89
2018-12-18T03:10:04.947Z,100778.95
2018-12-18T03:13:09.612Z,100775.41
2018-12-18T03:16:14.100Z,100781.98
2018-12-18T03:19:18.723Z,100775.25
2018-12-18T03:22:23.688Z,100780.78
2018-12-18T03:25:28.416Z,100782.89
2018-12-18T03:28:32.966Z,100775.73
2018-12-18T03:31:39.078Z,100783.02
2018-12-18T03:34:43.653Z,100773.85
2018-12-18T03:37:48.234Z,100764.70
2018-12-18T03:40:52.821Z,100760.41
2018-12-18T03:43:57.418Z,100746.84
2018-12-18T03:47:01.934Z,100745.50
2018-12-18T03:53:24.481Z,100740.95
2018-12-18T03:56:29.123Z,100743.06
2018-12-18T03:59:33.779Z,100744.88
2018-12-18T04:02:38.273Z,100750.48
2018-12-18T04:05:42.969Z,100750.69
2018-12-18T04:08:47.440Z,100758.19
2018-12-18T04:15:20.458Z,100754.05
2018-12-18T04:18:25.175Z,100759.80
2018-12-18T04:21:29.878Z,100757.20
2018-12-18T04:24:34.490Z,100749.22
2018-12-18T04:27:38.979Z,100740.75
2018-12-18T04:30:43.495Z,100751.59
2018-12-18T04:33:48.041Z,100757.70
2018-12-18T04:36:52.636Z,100763.66
2018-12-18T04:39:57.178Z,100751.87
2018-12-18T04:43:01.709Z,100755.80
2018-12-18T04:46:06.312Z,100757.00
2018-12-18T04:49:10.874Z,100748.80
2018-12-18T04:52:15.456Z,100747.53
2018-12-18T04:55:20.031Z,100747.18
2018-12-18T04:58:24.674Z,100760.58
2018-12-18T05:01:29.260Z,100758.96
2018-12-18T05:04:33.725Z,100767.78
2018-12-18T05:07:38.327Z,100768.48
2018-12-18T05:10:42.844Z,100764.27
2018-12-18T05:13:47.434Z,100768.91
2018-12-18T05:16:51.981Z,100773.53
2018-12-18T05:19:56.545Z,100764.42
2018-12-18T05:23:01.369Z,100770.45
2018-12-18T05:26:06.038Z,100769.75
2018-12-18T05:29:10.587Z,100773.33
2018-12-18T05:32:15.097Z,100772.55
2018-12-18T05:35:19.802Z,100771.34
2018-12-18T05:38:24.354Z,100774.16
2018-12-18T05:41:28.847Z,100780.66
2018-12-18T05:44:33.431Z,100781.53
2018-12-18T05:47:38.071Z,100785.65
2018-12-18T05:50:42.726Z,100786.27
2018-12-18T05:53:47.221Z,100790.27
2018-12-18T05:56:51.790Z,100792.31
2018-12-18T05:59:56.464Z,100800.31
2018-12-18T06:03:00.990Z,100792.53
2018-12-18T06:06:05.686Z,100790.33
2018-12-18T06:09:10.217Z,100790.69
2018-12-18T06:12:14.868Z,100790.91
2018-12-18T06:15:19.364Z,100794.45
2018-12-18T06:18:23.852Z,100786.08
2018-12-18T06:21:28.291Z,100782.91
2018-12-18T06:24:32.886Z,100788.16
2018-12-18T06:27:37.494Z,100778.50
2018-12-18T06:30:42.076Z,100777.72
2018-12-18T06:33:46.755Z,100780.80
2018-12-18T06:36:51.318Z,100776.55
2018-12-18T06:39:55.913Z,100784.59
2018-12-18T06:43:00.553Z,100779.55
2018-12-18T06:46:05.262Z,100773.59
2018-12-18T06:49:09.927Z,100771.77
2018-12-18T06:52:14.544Z,100783.47
2018-12-18T06:55:19.108Z,100784.88
2018-12-18T06:58:23.743Z,100780.67
2018-12-18T07:01:28.304Z,100776.95
2018-12-18T07:04:32.907Z,100772.77
2018-12-18T07:07:37.438Z,100774.16
2018-12-18T07:10:42.171Z,100772.24
2018-12-18T07:13:46.989Z,100766.70
2018-12-18T07:16:51.532Z,100765.68
2018-12-18T07:19:56.325Z,100759.58
2018-12-18T07:23:00.909Z,100763.29
2018-12-18T07:26:05.688Z,100767.44
2018-12-18T07:29:10.200Z,100773.19
2018-12-18T07:32:14.861Z,100778.23
2018-12-18T07:35:23.213Z,100781.17
2018-12-18T07:38:25.967Z,100786.50
2018-12-18T07:41:30.563Z,100785.31
2018-12-18T07:44:35.128Z,100790.07
2018-12-18T07:47:39.764Z,100791.25
2018-12-18T07:50:44.242Z,100792.11
2018-12-18T07:53:48.831Z,100793.50
2018-12-18T07:56:53.463Z,100793.85
2018-12-18T07:59:57.949Z,100789.36
2018-12-18T08:03:02.877Z,100790.83
2018-12-18T08:06:07.363Z,100789.64
2018-12-18T08:09:11.926Z,100783.41
2018-12-18T08:12:18.464Z,100801.56
2018-12-18T08:15:23.124Z,100799.71
2018-12-18T08:18:27.620Z,100809.41
2018-12-18T08:21:32.248Z,100806.30
2018-12-18T08:24:36.931Z,100804.91
2018-12-18T08:27:41.429Z,100803.34
2018-12-18T08:30:45.957Z,100803.42
2018-12-18T08:33:50.473Z,100800.09
2018-12-18T08:36:55.040Z,100799.83
2018-12-18T08:39:59.604Z,100810.83
2018-12-18T08:43:12.578Z,100807.37
2018-12-18T08:46:17.538Z,100799.50
2018-12-18T08:49:22.162Z,100803.66
2018-12-18T08:52:26.787Z,100799.41
2018-12-18T08:55:31.253Z,100792.39
2018-12-18T08:58:35.792Z,100791.48
2018-12-18T09:01:40.452Z,100797.73
2018-12-18T09:04:45.045Z,100796.41
2018-12-18T09:07:49.759Z,100797.05
2018-12-18T09:10:54.316Z,100797.85
2018-12-18T09:13:59.025Z,100796.53
2018-12-18T09:17:04.490Z,100798.39
2018-12-18T09:20:09.325Z,100800.83
2018-12-18T09:23:14.100Z,100791.66
2018-12-18T09:26:18.699Z,100772.84
2018-12-18T09:29:23.241Z,100772.54
2018-12-18T09:32:27.885Z,100762.84
2018-12-18T09:35:32.528Z,100745.23
2018-12-18T09:38:43.363Z,100737.94
2018-12-18T09:41:48.564Z,100724.95
2018-12-18T09:44:54.244Z,100720.83
2018-12-18T09:47:58.766Z,100734.37
2018-12-18T09:51:03.484Z,100729.76
2018-12-18T09:54:08.154Z,100720.45
2018-12-18T09:58:18.901Z,100723.12
2018-12-18T10:01:23.595Z,100718.94
2018-12-18T10:04:28.100Z,100721.03
2018-12-18T10:07:32.684Z,100715.88
2018-12-18T10:10:37.375Z,100700.01
2018-12-18T10:13:42.049Z,100705.32
2018-12-18T10:16:46.658Z,100709.80
2018-12-18T10:19:51.251Z,100696.27
2018-12-18T10:22:55.800Z,100681.72
2018-12-18T10:26:00.362Z,100695.89
2018-12-18T10:29:04.996Z,100692.14
2018-12-18T10:32:09.598Z,100683.12
2018-12-18T10:35:14.409Z,100679.45
2018-12-18T10:38:19.666Z,100676.67
2018-12-18T10:41:24.202Z,100677.64
2018-12-18T10:44:28.802Z,100666.84
2018-12-18T10:47:33.328Z,100666.95
2018-12-18T10:50:37.917Z,100667.95
2018-12-18T10:53:42.483Z,100664.28
2018-12-18T10:56:46.971Z,100657.25
2018-12-18T10:59:51.685Z,100648.55
2018-12-18T11:02:56.359Z,100632.09
2018-12-18T11:06:00.962Z,100629.98
2018-12-18T11:09:09.374Z,100619.58
2018-12-18T11:12:15.833Z,100607.05
2018-12-18T11:15:20.581Z,100606.34
2018-12-18T11:18:25.198Z,100598.31
2018-12-18T11:21:29.776Z,100595.31
2018-12-18T11:24:34.341Z,100583.44
2018-12-18T11:27:38.992Z,100569.56
2018-12-18T11:30:43.657Z,100559.67
2018-12-18T11:33:48.157Z,100565.53
2018-12-18T11:36:52.751Z,100562.86
2018-12-18T11:39:57.272Z,100560.66
2018-12-18T11:43:01.688Z,100548.89
2018-12-18T11:46:06.395Z,100533.28
2018-12-18T11:49:11.106Z,100528.78
2018-12-18T11:52:15.652Z,100518.51
2018-12-18T11:55:20.168Z,100508.38
2018-12-18T11:58:24.767Z,100504.31
2018-12-18T12:01:29.425Z,100512.70
2018-12-18T12:04:34.062Z,100500.45
2018-12-18T12:07:38.639Z,100497.70
2018-12-18T12:10:43.370Z,100501.13
2018-12-18T12:13:48.137Z,100488.98
2018-12-18T12:16:52.606Z,100491.31
2018-12-18T12:19:57.207Z,100479.62
2018-12-18T12:23:01.845Z,100486.85
2018-12-18T12:26:11.667Z,100479.98
2018-12-18T12:29:16.296Z,100476.48
2018-12-18T12:32:21.015Z,100470.38
2018-12-18T12:35:25.569Z,100460.29
2018-12-18T12:38:30.054Z,100445.85
2018-12-18T12:41:34.622Z,100446.25
2018-12-18T12:44:39.117Z,100444.45
2018-12-18T12:47:48.081Z,100433.30
2018-12-18T12:50:52.712Z,100427.94
2018-12-18T12:53:57.259Z,100419.33
2018-12-18T12:57:01.900Z,100420.31
2018-12-18T13:00:07.970Z,100414.38
2018-12-18T13:03:12.502Z,100416.95
2018-12-18T13:06:17.066Z,100417.83
2018-12-18T13:09:21.984Z,100406.87
2018-12-18T13:12:26.749Z,100400.54
2018-12-18T13:15:31.238Z,100404.28
2018-12-18T13:18:36.412Z,100399.44
2018-12-18T13:21:41.123Z,100400.90
2018-12-18T13:24:45.555Z,100403.07
2018-12-18T13:27:50.176Z,100397.00
2018-12-18T13:30:54.930Z,100397.22
2018-12-18T13:33:59.688Z,100390.30
2018-12-18T13:37:04.476Z,100384.93
2018-12-18T13:40:09.280Z,100383.09
2018-12-18T13:43:13.855Z,100386.75
2018-12-18T13:46:18.447Z,100370.11
2018-12-18T13:49:22.944Z,100372.42
2018-12-18T13:52:34.297Z,100376.81
2018-12-18T13:55:38.857Z,100371.67
2018-12-18T13:58:43.493Z,100364.53
2018-12-18T14:01:48.012Z,100359.33
2018-12-18T14:04:53.326Z,100356.69
2018-12-18T14:07:58.422Z,100349.19
2018-12-18T14:11:03.065Z,100347.40
2018-12-18T14:14:08.103Z,100336.72
2018-12-18T14:17:12.665Z,100345.56
2018-12-18T14:20:17.286Z,100334.56
2018-12-18T14:23:21.901Z,100331.07
2018-12-18T14:26:26.433Z,100321.70
2018-12-18T14:29:31.075Z,100323.03
2018-12-18T14:32:35.672Z,100321.03
2018-12-18T14:35:40.229Z,100325.06
2018-12-18T14:38:44.786Z,100315.09
2018-12-18T14:41:49.298Z,100328.63
2018-12-18T14:44:53.900Z,100325.42
2018-12-18T14:47:58.626Z,100328.11
2018-12-18T14:51:03.215Z,100323.11
2018-12-18T14:54:07.766Z,100315.89
2018-12-18T14:57:12.432Z,100321.54
2018-12-18T15:00:17.013Z,100313.20
2018-12-18T15:03:22.691Z,100311.18
2018-12-18T15:06:27.338Z,100303.67
2018-12-18T15:09:31.941Z,100301.67
2018-12-18T15:12:38.491Z,100307.95
2018-12-18T15:15:43.071Z,100312.75
2018-12-18T15:18:47.536Z,100314.38
2018-12-18T15:21:52.062Z,100315.92
2018-12-18T15:24:57.894Z,100318.23
2018-12-18T15:28:02.519Z,100317.94
2018-12-18T15:31:07.125Z,100314.06
2018-12-18T15:34:11.605Z,100320.23
2018-12-18T15:37:16.181Z,100308.43
2018-12-18T15:40:20.657Z,100320.66
2018-12-18T15:43:25.121Z,100308.86
2018-12-18T15:46:29.799Z,100309.20
2018-12-18T15:49:34.300Z,100301.87
2018-12-18T15:52:38.877Z,100305.23
2018-12-18T15:55:44.044Z,100302.18
2018-12-18T15:58:48.577Z,100306.34
2018-12-18T16:01:53.104Z,100297.75
2018-12-18T16:04:57.672Z,100300.27
2018-12-18T16:08:02.276Z,100301.72
2018-12-18T16:11:06.807Z,100304.63
2018-12-18T16:14:11.454Z,100299.13
2018-12-18T16:17:23.590Z,100286.23
2018-12-18T16:20:28.249Z,100289.13
2018-12-18T16:23:32.850Z,100292.68
2018-12-18T16:26:37.446Z,100291.45
2018-12-18T16:29:42.272Z,100290.36
2018-12-18T16:32:46.798Z,100280.81
2018-12-18T16:35:52.359Z,100274.72
2018-12-18T16:38:56.959Z,100275.79
2018-12-18T16:42:01.695Z,100265.42
2018-12-18T16:45:07.672Z,100264.03
2018-12-18T16:48:12.188Z,100255.73
2018-12-18T16:51:17.104Z,100262.03
2018-12-18T16:54:22.584Z,100262.84
2018-12-18T16:57:27.307Z,100256.53
2018-12-18T17:00:32.077Z,100245.77
2018-12-18T17:03:36.765Z,100247.88
2018-12-18T17:06:41.451Z,100248.35
2018-12-18T17:09:46.197Z,100257.30
2018-12-18T17:12:56.230Z,100256.52
2018-12-18T17:16:01.045Z,100257.00
2018-12-18T17:22:20.018Z,100259.41
2018-12-18T17:25:24.619Z,100256.72
2018-12-18T17:28:29.293Z,100254.42
2018-12-18T17:31:33.923Z,100249.41
2018-12-18T17:34:38.500Z,100244.44
2018-12-18T17:37:43.105Z,100255.05
2018-12-18T17:40:48.172Z,100252.76
2018-12-18T17:43:53.635Z,100252.70
2018-12-18T17:46:58.177Z,100246.77
2018-12-18T17:50:02.791Z,100246.84
2018-12-18T17:53:07.302Z,100242.85
2018-12-18T17:56:12.019Z,100240.27
2018-12-18T17:59:16.600Z,100242.52
2018-12-18T18:02:21.312Z,100239.30
2018-12-18T18:05:25.880Z,100234.41
2018-12-18T18:08:30.587Z,100232.12
2018-12-18T18:11:35.213Z,100239.91
2018-12-18T18:14:39.857Z,100238.67
2018-12-18T18:17:44.456Z,100237.13
2018-12-18T18:20:49.291Z,100240.82
2018-12-18T18:23:53.879Z,100239.05
2018-12-18T18:26:58.432Z,100246.04
2018-12-18T18:30:03.009Z,100262.31
2018-12-18T18:33:07.617Z,100259.85
2018-12-18T18:36:12.370Z,100261.61
2018-12-18T18:39:17.075Z,100267.95
2018-12-18T18:42:21.871Z,100264.30
2018-12-18T18:45:26.723Z,100276.32
2018-12-18T18:48:31.398Z,100284.75
2018-12-18T18:51:35.965Z,100275.41
2018-12-18T18:54:40.501Z,100277.75
2018-12-18T18:57:45.164Z,100284.13
2018-12-18T19:00:49.869Z,100295.64
2018-12-18T19:03:54.749Z,100296.61
2018-12-18T19:06:59.902Z,100285.72
2018-12-18T19:10:06.157Z,100282.09
2018-12-18T19:13:10.940Z,100273.41
2018-12-18T19:16:15.444Z,100273.28
2018-12-18T19:19:19.931Z,100274.00
2018-12-18T19:22:24.546Z,100272.78
2018-12-18T19:25:29.043Z,100264.18
2018-12-18T19:28:33.609Z,100267.53
2018-12-18T19:31:38.403Z,100267.53
2018-12-18T19:34:43.004Z,100251.52
2018-12-18T19:37:47.535Z,100230.86
2018-12-18T19:40:52.253Z,100221.67
2018-12-18T19:43:56.812Z,100222.36
2018-12-18T19:47:01.465Z,100221.84
2018-12-18T19:50:07.150Z,100209.17
2018-12-18T19:53:11.866Z,100201.23
2018-12-18T19:56:16.381Z,100199.28
2018-12-18T19:59:26.818Z,100195.80
2018-12-18T20:02:32.105Z,100187.50
2018-12-18T20:05:38.375Z,100196.87
2018-12-18T20:08:43.269Z,100185.80
2018-12-18T20:11:48.263Z,100179.89
2018-12-18T20:14:54.942Z,100163.19
2018-12-18T20:17:59.630Z,100166.17
2018-12-18T20:21:04.447Z,100158.69
2018-12-18T20:24:08.927Z,100157.95
2018-12-18T20:27:13.481Z,100156.03
2018-12-18T20:30:18.153Z,100159.11
2018-12-18T20:33:23.102Z,100164.06
2018-12-18T20:36:27.950Z,100153.70
2018-12-18T20:39:32.708Z,100164.25
2018-12-18T20:42:37.301Z,100162.05
2018-12-18T20:45:41.835Z,100159.02
2018-12-18T20:48:46.335Z,100163.38
2018-12-18T20:51:51.001Z,100160.36
2018-12-18T20:54:55.798Z,100162.41
2018-12-18T20:58:00.577Z,100144.42
2018-12-18T21:01:05.510Z,100149.50
2018-12-18T21:04:10.261Z,100140.96
2018-12-18T21:07:14.874Z,100141.47
2018-12-18T21:10:19.725Z,100142.94
2018-12-18T21:13:31.775Z,100144.28
2018-12-18T21:16:36.394Z,100148.77
2018-12-18T21:19:42.084Z,100148.59
2018-12-18T21:22:46.820Z,100129.99
2018-12-18T21:25:51.401Z,100124.16
2018-12-18T21:28:56.148Z,100118.04
2018-12-18T21:32:00.743Z,100124.98
2018-12-18T21:35:06.014Z,100114.37
2018-12-18T21:38:10.688Z,100118.36
2018-12-18T21:41:17.012Z,100123.29
2018-12-18T21:44:21.813Z,100104.36
2018-12-18T21:47:26.605Z,100101.19
2018-12-18T21:50:31.348Z,100100.14
2018-12-18T21:53:35.942Z,100102.16
2018-12-18T21:56:40.599Z,100099.86
2018-12-18T21:59:45.340Z,100100.47
2018-12-18T22:02:51.462Z,100103.77
2018-12-18T22:05:56.572Z,100093.45
2018-12-18T22:09:01.226Z,100089.62
2018-12-18T22:12:05.756Z,100088.88
2018-12-18T22:15:10.398Z,100083.84
2018-12-18T22:18:15.121Z,100082.14
2018-12-18T22:21:19.695Z,100085.74
2018-12-18T22:24:24.553Z,100082.47
2018-12-18T22:27:29.143Z,100081.46
2018-12-18T22:30:33.814Z,100077.43
2018-12-18T22:33:38.430Z,100076.60
2018-12-18T22:36:43.035Z,100075.31
2018-12-18T22:39:47.552Z,100061.78
2018-12-18T22:42:52.185Z,100057.09
2018-12-18T22:45:56.811Z,100055.08
2018-12-18T22:49:01.395Z,100049.28
2018-12-18T22:52:05.954Z,100047.95
2018-12-18T22:55:10.603Z,100033.27
2018-12-18T22:58:15.320Z,100023.78
2018-12-18T23:01:25.114Z,100013.13
2018-12-18T23:04:29.743Z,100000.64
2018-12-18T23:07:34.385Z,99990.14
2018-12-18T23:10:38.932Z,99991.83
2018-12-18T23:13:43.532Z,100001.15
2018-12-18T23:16:48.195Z,99997.12
2018-12-18T23:19:52.786Z,100011.61
2018-12-18T23:22:57.411Z,100000.78
2018-12-18T23:26:02.047Z,99995.93
2018-12-18T23:29:06.733Z,99994.45
2018-12-18T23:32:11.266Z,99997.08
2018-12-18T23:35:15.746Z,100000.39
2018-12-18T23:38:20.327Z,99997.52
2018-12-18T23:41:24.829Z,99991.11
2018-12-18T23:44:30.087Z,99991.44
2018-12-18T23:47:34.877Z,99993.87
2018-12-18T23:50:39.534Z,99982.84
2018-12-18T23:53:44.290Z,99963.95
2018-12-18T23:56:48.825Z,99956.66
2018-12-18T23:59:53.403Z,99955.79
